createdAt,value
2024-03-09T00:00:41.613Z,57.53
2024-03-09T00:03:11.132Z,58.97
2024-03-09T00:05:40.638Z,60.10
2024-03-09T00:08:08.479Z,66.15
2024-03-09T00:10:35.061Z,57.35
2024-03-09T00:13:02.618Z,61.65
2024-03-09T00:15:29.663Z,62.17
2024-03-09T00:17:57.694Z,64.53
2024-03-09T00:20:38.047Z,64.30
2024-03-09T00:23:07.658Z,61.40
2024-03-09T00:25:35.562Z,63.67
2024-03-09T00:28:02.091Z,64.10
2024-03-09T00:30:32.391Z,63.75
2024-03-09T00:33:00.505Z,67.63
2024-03-09T00:35:31.302Z,60.60
2024-03-09T00:37:59.345Z,66.28
2024-03-09T00:40:29.815Z,65.07
2024-03-09T00:42:58.145Z,64.22
2024-03-09T00:45:25.323Z,69.25
2024-03-09T00:47:51.970Z,72.65
2024-03-09T00:50:18.766Z,68.70
2024-03-09T00:52:46.607Z,68.63
2024-03-09T00:55:15.504Z,67.80
2024-03-09T00:57:43.786Z,64.85
2024-03-09T01:00:12.158Z,66.25
2024-03-09T01:02:44.081Z,74.38
2024-03-09T01:05:11.760Z,69.85
2024-03-09T01:07:39.347Z,73.97
2024-03-09T01:10:07.387Z,73.32
2024-03-09T01:12:35.003Z,68.78
2024-03-09T01:15:02.611Z,71.05
2024-03-09T01:17:29.248Z,71.85
2024-03-09T01:19:56.566Z,74.72
2024-03-09T01:22:23.734Z,75.35
2024-03-09T01:24:51.028Z,76.75
2024-03-09T01:27:18.300Z,75.65
2024-03-09T01:29:50.692Z,72.07
2024-03-09T01:32:17.423Z,71.45
2024-03-09T01:34:45.437Z,66.13
2024-03-09T01:37:12.055Z,73.50
2024-03-09T01:39:39.727Z,76.97
2024-03-09T01:42:09.549Z,73.68
2024-03-09T01:44:36.540Z,74.65
2024-03-09T01:47:10.233Z,73.50
2024-03-09T01:49:37.850Z,73.53
2024-03-09T01:52:06.316Z,84.82
2024-03-09T01:54:35.731Z,81.05
2024-03-09T01:57:02.671Z,71.57
2024-03-09T01:59:31.025Z,78.40
2024-03-09T02:01:58.753Z,79.22
2024-03-09T02:04:29.079Z,81.38
2024-03-09T02:07:23.400Z,80.50
2024-03-09T02:09:49.974Z,80.90
2024-03-09T02:12:19.279Z,77.15
2024-03-09T02:14:46.086Z,74.43
2024-03-09T02:17:13.536Z,78.78
2024-03-09T02:19:41.571Z,77.10
2024-03-09T02:22:11.293Z,77.55
2024-03-09T02:24:42.403Z,80.15
2024-03-09T02:29:35.868Z,81.50
2024-03-09T02:32:02.973Z,76.32
2024-03-09T02:34:29.716Z,78.75
2024-03-09T02:36:56.180Z,87.78
2024-03-09T02:39:24.649Z,81.45
2024-03-09T02:41:51.247Z,80.28
2024-03-09T02:44:18.402Z,86.13
2024-03-09T02:46:45.587Z,88.80
2024-03-09T02:49:12.137Z,78.68
2024-03-09T02:51:38.736Z,79.05
2024-03-09T02:54:05.486Z,88.82
2024-03-09T02:56:31.949Z,85.20
2024-03-09T02:59:00.001Z,87.93
2024-03-09T03:01:28.124Z,89.93
2024-03-09T03:04:00.013Z,88.88
2024-03-09T03:06:29.588Z,83.53
2024-03-09T03:09:00.270Z,94.13
2024-03-09T03:11:27.074Z,86.17
2024-03-09T03:13:53.972Z,85.10
2024-03-09T03:16:27.101Z,83.07
2024-03-09T03:18:54.282Z,85.47
2024-03-09T03:21:20.714Z,82.60
2024-03-09T03:23:49.999Z,91.90
2024-03-09T03:26:17.922Z,86.07
2024-03-09T03:28:45.989Z,88.97
2024-03-09T03:31:15.610Z,85.63
2024-03-09T03:33:42.305Z,86.60
2024-03-09T03:36:15.053Z,96.78
2024-03-09T03:38:45.295Z,84.20
2024-03-09T03:41:12.102Z,99.70
2024-03-09T03:43:39.350Z,87.70
2024-03-09T03:46:07.365Z,89.60
2024-03-09T03:48:34.598Z,93.30
2024-03-09T03:51:00.983Z,93.25
2024-03-09T03:53:27.934Z,92.55
2024-03-09T03:55:54.558Z,90.93
2024-03-09T03:58:24.042Z,97.20
2024-03-09T04:00:51.052Z,97.85
2024-03-09T04:03:17.861Z,95.80
2024-03-09T04:05:45.454Z,100.70
2024-03-09T04:08:12.259Z,101.55
2024-03-09T04:10:39.002Z,95.25
2024-03-09T04:13:06.380Z,98.07
2024-03-09T04:15:33.739Z,95.45
2024-03-09T04:18:04.686Z,95.95
2024-03-09T04:20:35.146Z,92.18
2024-03-09T04:23:06.152Z,93.17
2024-03-09T04:25:36.899Z,95.25
2024-03-09T04:28:04.305Z,103.63
2024-03-09T04:30:34.166Z,100.32
2024-03-09T04:33:07.040Z,95.78
2024-03-09T04:35:35.235Z,98.85
2024-03-09T04:38:03.184Z,102.43
2024-03-09T04:40:30.603Z,105.60
2024-03-09T04:42:57.402Z,102.90
2024-03-09T04:45:26.156Z,109.97
2024-03-09T04:47:53.774Z,108.22
2024-03-09T04:50:20.911Z,99.43
2024-03-09T04:52:52.148Z,103.72
2024-03-09T04:57:57.304Z,111.68
2024-03-09T05:00:26.049Z,106.20
2024-03-09T05:02:53.204Z,109.68
2024-03-09T05:05:20.315Z,107.28
2024-03-09T05:07:49.217Z,112.95
2024-03-09T05:10:20.604Z,101.57
2024-03-09T05:12:57.482Z,111.75
2024-03-09T05:15:30.458Z,112.18
2024-03-09T05:17:59.782Z,109.00
2024-03-09T05:20:27.281Z,108.32
2024-03-09T05:22:55.641Z,123.18
2024-03-09T05:25:23.048Z,104.47
2024-03-09T05:27:50.655Z,106.85
2024-03-09T05:30:19.863Z,109.60
2024-03-09T05:32:58.408Z,110.25
2024-03-09T05:35:30.291Z,111.05
2024-03-09T05:38:00.120Z,111.88
2024-03-09T05:40:32.836Z,112.18
2024-03-09T05:43:05.449Z,106.15
2024-03-09T05:45:32.108Z,120.80
2024-03-09T05:48:00.079Z,101.97
2024-03-09T05:50:31.846Z,117.10
2024-03-09T05:53:01.646Z,110.60
2024-03-09T05:55:29.142Z,118.70
2024-03-09T05:57:57.078Z,115.82
2024-03-09T06:00:30.183Z,114.72
2024-03-09T06:02:58.482Z,110.93
2024-03-09T06:05:32.228Z,120.15
2024-03-09T06:07:59.756Z,117.68
2024-03-09T06:10:27.417Z,110.13
2024-03-09T06:12:55.049Z,106.40
2024-03-09T06:15:26.000Z,116.20
2024-03-09T06:18:00.154Z,114.63
2024-03-09T06:20:28.256Z,116.85
2024-03-09T06:22:56.980Z,109.70
2024-03-09T06:25:24.902Z,108.72
2024-03-09T06:27:53.758Z,110.00
2024-03-09T06:30:20.904Z,114.50
2024-03-09T06:32:50.452Z,123.95
2024-03-09T06:35:20.343Z,107.95
2024-03-09T06:38:02.729Z,108.75
2024-03-09T06:40:34.136Z,101.65
2024-03-09T06:43:08.383Z,104.43
2024-03-09T06:45:37.460Z,115.35
2024-03-09T06:48:07.291Z,111.63
2024-03-09T06:50:36.970Z,111.15
2024-03-09T06:53:04.779Z,112.78
2024-03-09T06:55:31.439Z,117.78
2024-03-09T06:58:03.074Z,106.05
2024-03-09T07:00:31.660Z,117.25
2024-03-09T07:03:01.560Z,103.95
2024-03-09T07:05:28.978Z,107.38
2024-03-09T07:07:59.736Z,110.05
2024-03-09T07:10:28.490Z,108.40
2024-03-09T07:12:55.416Z,115.50
2024-03-09T07:15:23.369Z,107.43
2024-03-09T07:17:51.086Z,108.65
2024-03-09T07:20:19.238Z,104.90
2024-03-09T07:22:50.859Z,106.50
2024-03-09T07:27:49.424Z,102.47
2024-03-09T07:30:16.060Z,96.60
2024-03-09T07:32:50.329Z,92.47
2024-03-09T07:35:21.438Z,104.40
2024-03-09T07:37:56.556Z,98.15
2024-03-09T07:40:25.670Z,106.82
2024-03-09T07:42:56.417Z,93.57
2024-03-09T07:45:24.627Z,90.80
2024-03-09T07:47:51.768Z,99.55
2024-03-09T07:50:23.639Z,88.18
2024-03-09T07:52:55.613Z,82.45
2024-03-09T07:55:25.605Z,91.85
2024-03-09T07:58:09.072Z,85.80
2024-03-09T08:00:45.226Z,86.55
2024-03-09T08:03:13.363Z,82.32
2024-03-09T08:05:39.909Z,92.47
2024-03-09T08:08:11.096Z,90.28
2024-03-09T08:10:40.399Z,97.05
2024-03-09T08:13:06.865Z,89.65
2024-03-09T08:15:33.758Z,87.70
2024-03-09T08:18:00.386Z,79.25
2024-03-09T08:20:28.002Z,84.57
2024-03-09T08:22:55.387Z,83.68
2024-03-09T08:25:26.652Z,79.07
2024-03-09T08:27:55.804Z,86.15
2024-03-09T08:30:22.424Z,75.78
2024-03-09T08:32:51.835Z,85.65
2024-03-09T08:35:20.230Z,75.70
2024-03-09T08:37:47.885Z,86.05
2024-03-09T08:40:18.717Z,76.22
2024-03-09T08:42:50.938Z,76.55
2024-03-09T08:45:17.418Z,82.28
2024-03-09T08:47:43.966Z,78.47
2024-03-09T08:50:13.839Z,82.20
2024-03-09T08:52:41.385Z,81.75
2024-03-09T08:55:11.056Z,80.18
2024-03-09T08:57:38.325Z,73.10
2024-03-09T09:00:06.494Z,71.65
2024-03-09T09:02:34.005Z,74.13
2024-03-09T09:05:01.501Z,70.32
2024-03-09T09:07:28.506Z,72.00
2024-03-09T09:09:54.949Z,68.57
2024-03-09T09:12:21.334Z,69.07
2024-03-09T09:14:48.166Z,70.38
2024-03-09T09:17:14.701Z,67.40
2024-03-09T09:19:41.244Z,67.70
2024-03-09T09:22:08.603Z,60.45
2024-03-09T09:24:35.331Z,58.85
2024-03-09T09:27:01.730Z,67.22
2024-03-09T09:29:31.461Z,61.50
2024-03-09T09:32:01.797Z,61.97
2024-03-09T09:34:34.857Z,63.58
2024-03-09T09:37:01.546Z,65.30
2024-03-09T09:39:34.076Z,66.45
2024-03-09T09:42:01.205Z,64.60
2024-03-09T09:44:29.270Z,63.95
2024-03-09T09:47:00.540Z,62.10
2024-03-09T09:49:27.531Z,60.08
2024-03-09T09:51:58.629Z,63.05
2024-03-09T09:54:28.089Z,59.58
2024-03-09T09:56:57.382Z,54.63
2024-03-09T09:59:25.076Z,60.03
2024-03-09T10:01:52.052Z,51.75
2024-03-09T10:04:18.678Z,54.65
2024-03-09T10:06:46.199Z,55.92
2024-03-09T10:09:25.766Z,56.00
2024-03-09T10:11:52.254Z,62.97
2024-03-09T10:14:28.730Z,59.13
2024-03-09T10:16:55.661Z,61.95
2024-03-09T10:19:22.278Z,52.28
2024-03-09T10:21:52.988Z,57.33
2024-03-09T10:24:19.821Z,55.20
2024-03-09T10:26:46.734Z,56.47
2024-03-09T10:29:16.988Z,57.65
2024-03-09T10:31:44.686Z,54.92
2024-03-09T10:34:14.140Z,54.58
2024-03-09T10:36:41.023Z,63.65
2024-03-09T10:39:08.233Z,51.70
2024-03-09T10:41:36.824Z,55.75
2024-03-09T10:44:04.438Z,54.72
2024-03-09T10:46:33.588Z,51.97
2024-03-09T10:49:00.249Z,56.63
2024-03-09T10:51:26.884Z,53.35
2024-03-09T10:54:08.267Z,52.30
2024-03-09T10:56:35.817Z,49.53
2024-03-09T10:59:02.478Z,53.25
2024-03-09T11:01:29.186Z,53.20
2024-03-09T11:03:55.607Z,51.88
2024-03-09T11:06:23.261Z,55.80
2024-03-09T11:08:54.670Z,51.83
2024-03-09T11:11:26.391Z,44.70
2024-03-09T11:16:22.495Z,52.65
2024-03-09T11:18:54.950Z,49.42
2024-03-09T11:21:35.921Z,47.45
2024-03-09T11:24:08.824Z,43.38
2024-03-09T11:26:57.289Z,49.60
2024-03-09T11:29:31.377Z,48.75
2024-03-09T11:31:59.953Z,47.78
2024-03-09T11:34:27.731Z,45.20
2024-03-09T11:37:02.546Z,45.10
2024-03-09T11:39:32.533Z,42.70
2024-03-09T11:42:02.019Z,40.25
2024-03-09T11:44:30.819Z,41.22
2024-03-09T11:46:58.266Z,42.00
2024-03-09T11:49:34.245Z,42.95
2024-03-09T11:52:03.931Z,45.38
2024-03-09T11:54:30.721Z,41.17
2024-03-09T11:57:00.135Z,46.45
2024-03-09T11:59:27.187Z,49.22
2024-03-09T12:02:00.660Z,46.08
2024-03-09T12:04:34.319Z,49.20
2024-03-09T12:07:09.118Z,46.72
2024-03-09T12:09:35.991Z,36.33
2024-03-09T12:12:20.646Z,36.58
2024-03-09T12:14:47.964Z,29.65
2024-03-09T12:17:16.033Z,30.63
2024-03-09T12:19:43.751Z,30.25
2024-03-09T12:22:11.379Z,31.02
2024-03-09T12:24:37.843Z,31.95
2024-03-09T12:27:04.452Z,34.53
2024-03-09T12:29:33.968Z,31.48
2024-03-09T12:32:00.602Z,35.80
2024-03-09T12:34:27.713Z,33.72
2024-03-09T12:36:55.314Z,36.97
2024-03-09T12:39:21.905Z,36.00
2024-03-09T12:41:52.715Z,31.98
2024-03-09T12:44:19.608Z,36.65
2024-03-09T12:46:46.173Z,42.40
2024-03-09T12:49:15.245Z,36.25
2024-03-09T12:51:50.001Z,39.17
2024-03-09T12:54:19.813Z,39.53
2024-03-09T12:56:49.144Z,34.22
2024-03-09T12:59:28.419Z,36.88
2024-03-09T13:01:55.973Z,38.28
2024-03-09T13:04:27.465Z,39.72
2024-03-09T13:06:56.853Z,42.15
2024-03-09T13:09:31.603Z,39.30
2024-03-09T13:11:58.645Z,43.63
2024-03-09T13:14:25.117Z,40.20
2024-03-09T13:16:51.930Z,39.13
2024-03-09T13:19:18.720Z,38.78
2024-03-09T13:21:56.128Z,41.10
2024-03-09T13:24:23.885Z,42.58
2024-03-09T13:26:54.619Z,44.78
2024-03-09T13:29:29.032Z,40.92
2024-03-09T13:31:56.464Z,41.28
2024-03-09T13:34:22.881Z,39.20
2024-03-09T13:36:49.259Z,45.75
2024-03-09T13:39:17.534Z,38.70
2024-03-09T13:41:46.050Z,43.70
2024-03-09T13:44:13.484Z,38.35
2024-03-09T13:46:42.279Z,41.88
2024-03-09T13:49:14.484Z,38.80
2024-03-09T13:51:44.675Z,43.30
2024-03-09T13:54:11.283Z,45.47
2024-03-09T13:56:38.316Z,42.88
2024-03-09T13:59:15.473Z,42.85
2024-03-09T14:01:44.577Z,43.45
2024-03-09T14:04:12.228Z,39.08
2024-03-09T14:06:55.999Z,39.70
2024-03-09T14:09:31.485Z,35.63
2024-03-09T14:11:58.191Z,46.47
2024-03-09T14:14:24.689Z,46.13
2024-03-09T14:16:51.122Z,35.13
2024-03-09T14:19:20.574Z,39.28
2024-03-09T14:21:50.373Z,37.90
2024-03-09T14:24:16.962Z,35.70
2024-03-09T14:26:45.777Z,37.70
2024-03-09T14:29:14.536Z,40.45
2024-03-09T14:31:42.261Z,38.42
2024-03-09T14:34:09.149Z,38.60
2024-03-09T14:36:35.779Z,36.20
2024-03-09T14:39:03.033Z,37.78
2024-03-09T14:41:29.519Z,33.00
2024-03-09T14:43:57.965Z,35.63
2024-03-09T14:46:25.155Z,35.40
2024-03-09T14:48:54.263Z,37.20
2024-03-09T14:51:23.593Z,36.50
2024-03-09T14:53:51.181Z,32.65
2024-03-09T14:56:18.535Z,35.58
2024-03-09T14:58:50.235Z,35.65
2024-03-09T15:01:21.234Z,34.70
2024-03-09T15:03:47.877Z,31.17
2024-03-09T15:06:18.453Z,32.40
2024-03-09T15:08:45.063Z,33.80
2024-03-09T15:11:17.826Z,30.25
2024-03-09T15:13:52.528Z,33.80
2024-03-09T15:16:23.495Z,31.10
2024-03-09T15:18:53.698Z,33.83
2024-03-09T15:21:24.471Z,33.92
2024-03-09T15:23:52.866Z,38.33
2024-03-09T15:26:20.954Z,35.42
2024-03-09T15:28:47.823Z,32.88
2024-03-09T15:31:15.885Z,35.25
2024-03-09T15:33:42.951Z,31.10
2024-03-09T15:36:11.806Z,32.95
2024-03-09T15:38:41.961Z,35.58
2024-03-09T15:41:12.798Z,37.40
2024-03-09T15:43:42.978Z,25.30
2024-03-09T15:46:12.359Z,36.28
2024-03-09T15:48:40.075Z,35.17
2024-03-09T15:51:07.597Z,36.08
2024-03-09T15:53:35.631Z,38.92
2024-03-09T15:56:02.466Z,40.58
2024-03-09T15:58:31.506Z,35.22
2024-03-09T16:01:04.029Z,34.85
2024-03-09T16:03:32.796Z,32.97
2024-03-09T16:06:03.343Z,37.55
2024-03-09T16:08:29.950Z,36.35
2024-03-09T16:10:56.972Z,33.30
2024-03-09T16:13:23.509Z,36.17
2024-03-09T16:15:51.046Z,34.15
2024-03-09T16:18:18.434Z,42.80
2024-03-09T16:20:45.122Z,37.22
2024-03-09T16:23:19.185Z,35.80
2024-03-09T16:25:50.296Z,36.50
2024-03-09T16:28:18.057Z,35.25
2024-03-09T16:30:45.310Z,36.78
2024-03-09T16:33:15.220Z,37.20
2024-03-09T16:35:45.408Z,40.58
2024-03-09T16:38:12.005Z,38.75
2024-03-09T16:40:40.299Z,35.25
2024-03-09T16:43:08.853Z,37.63
2024-03-09T16:45:35.686Z,34.90
2024-03-09T16:48:07.361Z,41.83
2024-03-09T16:50:34.508Z,36.22
2024-03-09T16:53:01.198Z,40.72
2024-03-09T16:55:31.218Z,37.88
2024-03-09T17:00:29.458Z,41.17
2024-03-09T17:02:55.897Z,40.13
2024-03-09T17:05:27.811Z,38.45
2024-03-09T17:07:55.539Z,39.00
2024-03-09T17:10:22.076Z,42.28
2024-03-09T17:12:50.782Z,39.05
2024-03-09T17:15:20.037Z,41.22
2024-03-09T17:17:49.143Z,41.70
2024-03-09T17:20:27.196Z,36.60
2024-03-09T17:22:56.979Z,38.47
2024-03-09T17:25:23.867Z,40.53
2024-03-09T17:27:51.070Z,36.60
2024-03-09T17:30:17.654Z,43.50
2024-03-09T17:32:47.640Z,38.70
2024-03-09T17:35:23.582Z,38.35
2024-03-09T17:37:50.897Z,38.42
2024-03-09T17:40:17.939Z,37.55
2024-03-09T17:42:55.174Z,42.05
2024-03-09T17:45:27.066Z,40.47
2024-03-09T17:47:53.875Z,41.05
2024-03-09T17:50:20.724Z,39.20
2024-03-09T17:52:48.725Z,44.78
2024-03-09T17:55:20.713Z,40.55
2024-03-09T17:57:52.862Z,39.78
2024-03-09T18:00:25.648Z,39.92
2024-03-09T18:02:58.119Z,42.75
2024-03-09T18:05:29.884Z,38.20
2024-03-09T18:10:28.556Z,42.05
2024-03-09T18:12:55.993Z,39.88
2024-03-09T18:15:24.128Z,41.95
2024-03-09T18:17:52.241Z,37.10
2024-03-09T18:20:23.963Z,35.78
2024-03-09T18:22:54.440Z,43.30
2024-03-09T18:25:21.677Z,39.20
2024-03-09T18:27:49.013Z,41.55
2024-03-09T18:30:18.668Z,39.63
2024-03-09T18:32:49.651Z,40.70
2024-03-09T18:35:23.524Z,35.97
2024-03-09T18:37:51.386Z,38.25
2024-03-09T18:40:17.909Z,35.97
2024-03-09T18:42:48.443Z,34.60
2024-03-09T18:45:15.894Z,34.70
2024-03-09T18:47:42.976Z,35.38
2024-03-09T18:50:10.443Z,39.80
2024-03-09T18:52:40.387Z,38.35
2024-03-09T18:55:12.453Z,41.42
2024-03-09T18:57:40.310Z,37.03
2024-03-09T19:00:17.182Z,39.58
2024-03-09T19:02:46.915Z,37.72
2024-03-09T19:05:24.379Z,36.72
2024-03-09T19:07:53.019Z,37.72
2024-03-09T19:10:20.092Z,36.83
2024-03-09T19:12:48.414Z,36.58
2024-03-09T19:15:15.258Z,38.75
2024-03-09T19:17:43.374Z,42.15
2024-03-09T19:20:13.305Z,39.55
2024-03-09T19:22:40.993Z,42.03
2024-03-09T19:25:11.733Z,37.88
2024-03-09T19:27:42.079Z,31.63
2024-03-09T19:30:16.684Z,37.08
2024-03-09T19:32:45.629Z,40.13
2024-03-09T19:35:16.950Z,40.78
2024-03-09T19:40:21.840Z,40.40
2024-03-09T19:42:49.484Z,46.00
2024-03-09T19:45:20.956Z,43.03
2024-03-09T19:47:49.769Z,39.20
2024-03-09T19:50:17.278Z,38.40
2024-03-09T19:52:48.707Z,41.83
2024-03-09T19:55:16.973Z,41.50
2024-03-09T19:57:44.120Z,42.63
2024-03-09T20:00:14.737Z,40.00
2024-03-09T20:02:41.833Z,43.10
2024-03-09T20:05:12.185Z,41.85
2024-03-09T20:07:39.341Z,41.08
2024-03-09T20:10:07.161Z,45.60
2024-03-09T20:12:34.708Z,43.80
2024-03-09T20:15:02.448Z,47.92
2024-03-09T20:17:28.997Z,44.15
2024-03-09T20:19:57.750Z,46.88
2024-03-09T20:22:25.094Z,47.30
2024-03-09T20:24:51.547Z,44.03
2024-03-09T20:27:17.930Z,40.42
2024-03-09T20:29:44.319Z,49.10
2024-03-09T20:32:11.198Z,43.45
2024-03-09T20:34:37.781Z,47.63
2024-03-09T20:37:04.399Z,45.88
2024-03-09T20:39:30.842Z,45.70
2024-03-09T20:41:57.212Z,44.15
2024-03-09T20:44:23.677Z,46.38
2024-03-09T20:46:50.265Z,46.03
2024-03-09T20:49:16.968Z,43.88
2024-03-09T20:51:43.359Z,48.53
2024-03-09T20:54:10.070Z,46.10
2024-03-09T20:56:38.363Z,47.25
2024-03-09T20:59:04.827Z,48.88
2024-03-09T21:01:31.542Z,46.22
2024-03-09T21:03:57.903Z,51.08
2024-03-09T21:06:24.401Z,45.08
2024-03-09T21:08:52.390Z,51.78
2024-03-09T21:11:18.870Z,44.15
2024-03-09T21:13:45.327Z,44.72
2024-03-09T21:16:11.891Z,46.20
2024-03-09T21:18:38.445Z,44.83
2024-03-09T21:21:05.294Z,42.28
2024-03-09T21:23:31.882Z,44.38
2024-03-09T21:25:58.432Z,42.55
2024-03-09T21:28:25.877Z,46.58
2024-03-09T21:30:53.729Z,47.03
2024-03-09T21:33:21.979Z,43.47
2024-03-09T21:35:48.364Z,44.03
2024-03-09T21:38:15.733Z,42.72
2024-03-09T21:40:42.338Z,41.80
2024-03-09T21:43:09.184Z,45.80
2024-03-09T21:45:36.166Z,42.25
2024-03-09T21:48:04.237Z,40.72
2024-03-09T21:50:31.096Z,48.88
2024-03-09T21:53:00.080Z,39.95
2024-03-09T21:55:27.370Z,41.58
2024-03-09T21:57:54.686Z,44.42
2024-03-09T22:00:21.627Z,37.30
2024-03-09T22:02:50.130Z,42.08
2024-03-09T22:05:20.894Z,40.25
2024-03-09T22:07:53.569Z,46.65
2024-03-09T22:10:22.654Z,43.30
2024-03-09T22:12:51.747Z,41.80
2024-03-09T22:15:18.767Z,40.22
2024-03-09T22:17:45.422Z,42.08
2024-03-09T22:20:16.321Z,42.28
2024-03-09T22:22:45.121Z,42.22
2024-03-09T22:25:16.263Z,45.15
2024-03-09T22:27:45.082Z,43.50
2024-03-09T22:30:13.038Z,40.80
2024-03-09T22:32:40.941Z,53.08
2024-03-09T22:35:11.598Z,44.55
2024-03-09T22:37:39.454Z,42.10
2024-03-09T22:40:14.109Z,42.63
2024-03-09T22:42:40.783Z,47.20
2024-03-09T22:45:08.982Z,48.47
2024-03-09T22:47:37.019Z,41.72
2024-03-09T22:50:04.473Z,44.67
2024-03-09T22:52:31.808Z,44.90
2024-03-09T22:54:58.373Z,42.53
2024-03-09T22:57:24.770Z,44.13
2024-03-09T22:59:51.915Z,44.33
2024-03-09T23:02:18.376Z,47.13
2024-03-09T23:04:44.894Z,44.05
2024-03-09T23:07:11.321Z,45.75
2024-03-09T23:09:40.642Z,47.40
2024-03-09T23:12:10.778Z,45.58
2024-03-09T23:14:38.496Z,44.42
2024-03-09T23:17:06.146Z,52.35
2024-03-09T23:19:32.719Z,44.90
2024-03-09T23:22:01.842Z,42.95
2024-03-09T23:24:29.276Z,42.67
2024-03-09T23:26:58.150Z,44.53
2024-03-09T23:29:26.610Z,44.08
2024-03-09T23:31:53.110Z,49.60
2024-03-09T23:34:22.592Z,44.80
2024-03-09T23:36:49.770Z,39.90
2024-03-09T23:39:16.733Z,48.35
2024-03-09T23:41:44.011Z,47.10
2024-03-09T23:44:13.779Z,45.53
2024-03-09T23:46:40.989Z,43.15
2024-03-09T23:49:10.506Z,51.30
2024-03-09T23:51:37.688Z,43.08
2024-03-09T23:54:05.746Z,51.35
2024-03-09T23:56:33.142Z,48.90
2024-03-09T23:59:00.273Z,44.88
